Date,TemperatureHighF,TemperatureAvgF,TemperatureLowF,DewpointHighF,DewpointAvgF,DewpointLowF,HumidityHigh,HumidityAvg,HumidityLow,PressureMaxIn,PressureMinIn,WindSpeedMaxMPH,WindSpeedAvgMPH,GustSpeedMaxMPH,PrecipitationSumIn
2014-1-1,20.3,14.3,9.2,15.1,8.9,0.7,86,79,61,30.23,29.83,11,6,30,0.00
2014-1-2,30.7,22.2,13.3,12.6,4.0,-9.6,63,46,29,30.33,29.96,13,8,34,0.02
2014-1-3,29.8,25.1,21.6,12.8,8.6,5.0,66,50,35,29.96,29.53,14,8,34,0.00
2014-1-4,23.2,10.6,-3.7,14.6,1.7,-13.6,86,67,47,29.88,29.39,8,3,25,0.00
2014-1-5,-2.4,-4.8,-5.9,-11.2,-13.2,-15.2,71,66,61,30.47,29.89,16,7,40,0.00
2014-1-6,17.2,8.5,-5.2,4.6,-2.6,-13.9,70,60,54,30.63,30.46,17,10,44,0.00
2014-1-7,30.4,17.9,1.5,12.1,5.3,-3.7,80,59,35,30.43,29.88,10,3,30,0.01
2014-1-8,22.7,17.4,13.5,9.1,7.4,5.0,74,65,50,29.95,29.85,8,3,27,0.00
2014-1-9,19.7,15.9,11.9,10.0,6.2,2.6,80,66,49,29.90,29.64,14,7,33,0.00
2014-1-10,12.8,8.2,3.4,8.9,2.5,-6.4,84,77,63,30.08,29.62,13,7,33,0.00
2014-1-11,28.5,22.4,13.1,19.7,14.2,9.2,87,72,51,30.22,29.72,14,9,36,0.01
2014-1-12,26.1,14.1,4.7,15.7,6.8,-0.7,83,73,49,29.94,29.43,11,5,35,0.00
2014-1-13,16.2,10.6,4.7,11.4,5.8,-0.8,83,81,74,30.34,29.93,15,10,35,0.00
2014-1-14,15.4,13.0,11.2,10.1,8.3,6.9,84,81,74,30.38,30.24,17,11,43,0.00
2014-1-15,24.8,18.9,15.7,12.5,8.6,4.0,76,64,51,30.38,30.11,18,13,46,0.00
2014-1-16,22.7,16.9,12.6,4.6,2.4,-1.5,69,53,38,30.25,30.10,13,8,33,0.00
2014-1-17,24.7,18.2,12.6,9.7,5.3,1.7,70,57,49,30.25,30.11,13,7,37,0.00
2014-1-18,34.1,23.3,13.5,5.1,-2.9,-19.7,53,34,12,30.17,30.10,8,3,25,0.00
2014-1-19,32.4,27.0,21.9,10.3,-0.8,-20.8,46,31,11,30.11,29.89,12,8,31,0.00
2014-1-20,26.0,22.2,18.3,3.8,-3.4,-21.2,45,33,13,30.25,29.83,11,6,33,0.00
2014-1-21,33.2,26.0,20.5,-8.2,-17.9,-27.5,17,13,8,30.26,29.99,11,7,33,0.00
2014-1-22,33.7,21.3,6.5,4.9,-11.5,-26.9,83,30,9,29.97,29.68,8,2,24,0.00
2014-1-23,21.0,7.8,-5.0,3.8,-6.5,-26.6,80,57,13,30.52,29.83,5,1,22,0.00
2014-1-24,29.1,22.1,13.1,8.8,-9.4,-26.8,58,26,13,30.54,30.19,13,8,34,0.01
2014-1-25,36.9,28.5,22.5,16.7,11.3,3.0,57,48,40,30.19,29.75,9,6,28,0.00
2014-1-26,29.0,23.0,18.9,9.6,7.5,4.3,62,52,35,29.74,29.62,10,5,33,0.00
2014-1-27,21.9,16.9,6.3,11.7,8.2,0.9,85,69,53,29.75,29.57,11,6,37,0.00
2014-1-28,13.1,5.5,-3.5,-0.8,-7.5,-13.0,78,57,31,30.33,29.76,11,8,29,0.00
2014-1-29,27.8,20.6,12.8,20.8,7.0,-10.9,89,57,33,30.31,29.52,13,8,33,0.00
2014-1-30,25.1,22.5,20.2,22.3,19.2,15.8,90,87,80,29.49,29.30,4,1,15,0.00
2014-1-31,22.2,16.2,9.5,16.3,11.1,3.1,86,80,69,29.56,29.32,2,1,12,0.00
2014-2-1,12.4,4.9,-3.5,2.9,-3.1,-10.1,80,69,55,30.03,29.54,5,1,19,0.01
2014-2-2,20.8,6.3,-7.2,-3.1,-11.1,-16.2,74,48,21,30.12,29.94,8,3,22,0.00
2014-2-3,19.2,9.5,2.6,2.4,-2.1,-8.4,79,60,43,29.96,29.74,6,2,22,0.00
2014-2-4,11.1,2.1,-9.6,2.8,-4.8,-15.9,79,72,63,30.11,29.73,4,0,15,0.00
2014-2-5,9.2,2.0,-3.7,-6.8,-10.6,-14.2,73,55,43,30.18,30.07,8,5,24,0.00
2014-2-6,12.6,8.3,3.4,2.6,-0.3,-7.0,73,67,60,30.09,29.85,7,4,26,0.00
2014-2-7,17.7,13.1,10.5,8.3,5.9,2.9,79,72,63,29.89,29.74,6,4,24,0.00
2014-2-8,20.8,17.7,13.3,17.0,13.0,7.3,88,82,75,29.97,29.81,8,3,28,0.00
2014-2-9,25.1,23.0,20.0,20.4,19.0,17.0,89,85,78,29.89,29.73,6,3,31,0.00
2014-2-10,25.6,18.9,9.3,18.6,12.6,2.4,85,76,68,29.93,29.71,6,2,22,0.00
2014-2-11,25.6,13.8,0.9,7.3,-0.2,-8.0,76,56,24,30.09,29.92,11,4,27,0.00
2014-2-12,24.8,18.6,10.7,17.7,8.6,-6.0,81,66,32,30.14,29.93,14,9,33,0.00
2014-2-13,27.9,24.2,21.3,22.5,19.0,16.3,87,80,71,29.94,29.68,10,6,30,0.00
2014-2-14,27.5,23.1,17.8,23.0,18.2,12.4,88,81,66,29.91,29.67,9,6,32,0.00
2014-2-15,30.9,28.0,26.1,23.0,19.4,14.7,83,71,53,29.90,29.80,15,7,33,0.00
2014-2-16,34.0,28.4,16.1,20.2,13.6,3.1,85,55,37,29.80,29.50,14,5,41,0.06
2014-2-17,34.3,22.4,10.5,1.7,-6.2,-16.8,59,30,17,30.08,29.77,12,5,31,0.01
2014-2-18,32.4,26.0,18.9,2.7,-0.6,-5.4,45,31,23,29.85,29.75,9,5,29,0.00
2014-2-19,31.2,22.7,5.4,17.2,8.0,-3.7,84,55,27,29.74,29.24,14,8,33,0.00
2014-2-20,7.2,2.9,-1.4,-0.8,-6.0,-8.3,77,66,49,30.27,29.29,13,9,37,0.00
2014-2-21,21.8,13.8,7.4,3.3,1.4,-5.6,76,58,43,30.25,29.88,7,4,27,0.01
2014-2-22,19.7,16.2,10.7,10.1,4.3,-2.0,78,59,46,29.88,29.75,4,2,33,0.00
2014-2-23,29.4,21.4,14.4,10.0,7.2,1.2,80,56,37,30.01,29.84,10,6,32,0.00
2014-2-24,31.8,25.8,21.1,10.7,7.5,3.3,54,45,38,29.88,29.74,13,8,34,0.01
2014-2-25,32.5,27.4,23.9,16.4,10.8,2.4,71,50,36,29.82,29.62,13,9,37,0.00
2014-2-26,30.4,23.0,10.2,16.6,8.5,0.7,78,56,29,29.77,29.62,12,6,32,0.00
2014-2-27,33.2,25.2,13.3,20.6,15.2,5.0,85,66,55,29.75,29.36,12,6,33,0.00
2014-2-28,28.8,23.7,19.5,19.3,12.8,3.1,79,64,35,29.64,29.35,16,7,40,0.00
2014-3-1,28.8,24.5,17.2,23.2,18.7,12.9,89,79,66,29.60,29.39,7,2,28,0.00
2014-3-2,26.6,19.6,6.7,14.2,10.6,2.6,86,68,47,29.96,29.60,7,2,19,0.00
2014-3-3,27.5,22.3,16.5,16.7,11.6,6.4,76,63,48,29.94,29.88,11,6,32,0.00
2014-3-4,35.0,25.8,19.9,17.7,6.5,-2.3,84,47,25,29.87,29.65,11,4,27,0.01
2014-3-5,28.5,21.3,13.1,13.7,4.1,-3.8,77,50,28,30.06,29.74,13,7,33,0.00
2014-3-6,38.6,29.8,23.0,14.1,7.1,2.4,67,39,25,30.01,29.58,14,8,35,0.00
2014-3-7,26.0,21.7,14.8,20.8,15.6,10.9,86,78,65,29.89,29.50,9,1,22,0.00
2014-3-8,28.1,13.7,-1.8,11.6,3.7,-7.3,85,66,36,30.44,29.89,3,1,13,0.28
2014-3-9,42.3,30.8,9.2,6.9,-4.0,-13.5,60,24,13,30.43,30.00,10,5,27,0.01
2014-3-10,43.1,33.1,23.0,9.6,-5.1,-15.4,27,19,14,29.99,29.44,10,4,30,0.00
2014-3-11,29.0,17.3,-7.2,15.6,5.2,-13.3,82,62,27,30.09,29.32,10,3,22,0.02
2014-3-12,32.1,9.7,-13.5,10.6,-9.5,-20.2,77,49,15,30.56,30.11,4,1,12,0.06
2014-3-13,31.0,22.5,1.7,14.6,4.8,-11.5,68,47,34,30.36,29.88,14,7,34,0.00
2014-3-14,35.3,24.0,8.1,9.8,1.9,-8.1,75,41,19,29.99,29.84,9,3,26,0.00
2014-3-15,22.9,17.3,11.4,10.9,6.0,0.0,79,61,45,30.24,29.76,10,6,29,0.00
2014-3-16,25.8,15.8,12.3,9.2,3.6,-1.7,69,58,48,30.35,30.24,15,12,41,0.00
2014-3-17,37.8,25.5,10.5,18.5,10.3,1.6,85,58,22,29.40,29.18,8,3,29,0.00
2014-3-18,17.7,10.2,3.5,5.1,0.5,-2.8,78,65,46,30.14,29.23,13,6,35,0.01
2014-3-19,28.8,15.6,-0.8,3.2,-1.9,-10.3,79,49,24,30.31,30.14,12,5,28,0.00
2014-3-20,36.8,27.9,19.5,-2.2,-10.6,-21.8,28,18,11,30.18,29.78,13,9,31,0.00
2014-3-21,36.8,26.7,17.5,16.8,2.2,-4.2,86,38,19,29.82,29.70,11,4,27,0.00
2014-3-22,30.0,18.5,-0.4,19.7,11.0,-6.2,87,73,53,30.17,29.76,8,2,21,0.03
2014-3-23,29.7,19.0,-1.6,10.2,-0.6,-7.6,78,44,23,30.24,30.13,12,4,24,0.01
2014-3-24,29.7,22.7,15.1,4.4,0.4,-3.3,47,38,28,30.06,29.97,15,8,33,0.00
2014-3-25,42.2,28.6,16.2,11.1,3.8,0.8,60,37,18,30.03,29.62,11,3,25,0.00
2014-3-26,36.6,27.7,19.5,20.7,12.9,0.9,89,56,29,29.58,29.20,9,4,33,0.00
2014-3-27,25.3,18.8,13.3,16.7,12.5,7.2,87,76,57,29.75,29.16,10,4,27,0.16
2014-3-28,22.5,16.5,10.4,12.9,7.9,0.0,85,69,49,30.22,29.73,11,5,29,0.01
2014-3-29,36.2,24.2,1.8,13.6,3.3,-8.2,72,42,25,30.28,29.93,14,6,33,0.02
2014-3-30,36.8,30.3,18.4,21.2,11.4,6.8,86,47,31,29.86,29.25,10,5,29,0.00
2014-3-31,28.4,19.8,12.9,11.8,5.2,-6.6,83,56,24,29.87,29.33,9,5,28,0.03
2014-4-1,29.0,21.7,13.1,16.3,10.6,4.5,85,64,44,29.77,29.59,5,1,23,0.06
2014-4-2,31.9,23.0,9.9,15.7,7.5,-0.5,77,52,36,29.57,29.45,8,2,23,0.00
2014-4-3,22.7,16.3,2.2,12.3,7.2,-3.4,84,68,45,30.01,29.46,9,2,21,0.13
2014-4-4,30.1,16.7,-2.4,12.3,0.8,-7.8,81,54,25,30.16,29.97,5,1,16,0.02
2014-4-5,33.7,20.9,7.6,19.4,10.5,1.6,88,67,28,29.93,29.71,6,1,14,0.02
2014-4-6,27.5,20.2,9.7,13.8,9.8,5.0,85,65,42,29.89,29.76,9,4,25,0.09
2014-4-7,25.0,20.2,15.7,16.9,11.4,7.3,82,69,48,30.16,29.84,13,8,31,0.02
2014-4-8,40.1,30.1,21.8,18.9,15.4,10.9,76,56,36,30.22,30.08,16,8,38,0.00
2014-4-9,45.5,35.8,20.0,16.7,12.9,7.2,73,40,27,30.04,29.70,12,6,32,0.00
2014-4-10,43.2,37.2,31.5,20.9,13.7,9.0,61,39,26,29.72,29.58,12,6,30,0.00
2014-4-11,46.5,37.1,26.0,19.7,12.1,3.2,70,38,21,29.74,29.60,8,3,23,0.00
2014-4-12,44.8,36.3,27.0,21.6,13.3,3.8,71,41,24,29.55,29.34,7,2,24,0.00
2014-4-13,29.5,20.3,4.5,23.7,16.5,-0.6,91,85,68,29.78,29.29,5,1,15,0.05
2014-4-14,20.0,10.9,0.3,5.4,-0.9,-6.3,79,60,35,30.30,29.82,12,5,30,0.01
2014-4-15,36.8,27.1,15.1,11.0,6.1,0.4,57,41,28,30.25,29.60,12,7,36,0.05
2014-4-16,35.5,27.1,19.9,22.3,14.0,5.2,89,61,30,29.77,29.52,11,4,30,0.01
2014-4-17,41.9,27.6,5.0,16.6,10.4,0.1,85,52,27,29.97,29.78,8,2,20,0.03
2014-4-18,49.2,36.6,19.7,25.4,17.6,11.8,76,49,25,29.94,29.68,8,2,22,0.00
2014-4-19,42.9,34.1,27.2,32.0,26.4,19.7,93,74,52,29.79,29.64,8,1,18,0.07
2014-4-20,44.3,35.5,24.2,27.7,24.2,17.3,93,65,35,29.90,29.76,8,2,18,0.04
2014-4-21,46.7,34.7,21.9,23.3,19.1,15.3,80,56,28,29.97,29.87,5,1,15,0.00
2014-4-22,49.6,39.4,24.8,28.7,22.7,17.9,77,53,34,29.89,29.39,7,2,22,0.00
2014-4-23,41.2,33.1,19.7,24.6,15.5,5.0,80,51,24,29.44,29.22,15,5,30,0.00
2014-4-24,39.5,28.6,17.2,14.2,5.6,-9.0,61,38,25,29.82,29.49,13,8,33,0.00
2014-4-25,48.8,38.3,28.5,21.0,10.5,5.6,65,33,18,29.77,29.39,8,3,21,0.00
2014-4-26,43.2,34.2,25.4,24.2,17.0,10.7,87,51,30,29.36,29.01,7,2,22,0.00
2014-4-27,26.1,21.6,17.0,17.4,13.9,8.4,86,72,58,29.47,28.95,19,14,44,0.00
2014-4-28,23.0,16.3,12.1,10.7,7.3,2.3,80,68,44,29.98,29.49,16,9,36,0.00
2014-4-29,23.5,17.9,12.9,12.0,8.6,5.3,78,67,52,30.19,30.02,12,8,33,0.01
2014-4-30,27.9,20.2,14.3,12.9,7.8,3.4,79,59,44,30.22,30.14,8,5,28,0.01
2014-5-1,33.1,23.8,14.0,12.7,7.3,0.1,66,50,35,30.17,30.08,10,5,27,0.00
2014-5-2,45.1,35.9,24.2,23.4,16.5,10.3,56,46,32,30.05,29.79,10,4,24,0.00
2014-5-3,53.1,41.4,31.5,22.7,15.9,8.0,64,38,17,29.76,29.66,10,3,29,0.00
2014-5-4,52.6,45.5,39.6,15.0,11.3,7.7,33,25,17,29.65,29.52,12,4,32,0.00
2014-5-5,52.5,42.7,27.8,17.0,7.6,1.1,62,24,13,29.59,29.44,5,2,19,0.00
2014-5-6,50.8,40.4,26.4,18.6,10.9,5.2,66,32,17,29.41,29.22,4,1,19,0.00
2014-5-7,44.2,35.5,25.1,18.0,8.6,2.0,70,35,18,29.36,29.24,8,2,23,0.00
2014-5-8,37.6,27.3,18.6,20.7,15.4,9.5,83,62,38,29.71,29.34,10,4,25,0.00
2014-5-9,40.2,29.8,23.9,25.0,19.3,12.1,89,66,37,29.72,29.63,11,4,32,0.02
2014-5-10,42.6,34.4,27.2,26.2,23.8,21.2,89,67,43,29.67,29.39,6,2,22,0.28
2014-5-11,30.6,28.1,22.9,28.8,25.8,19.3,94,91,86,29.44,29.24,3,1,12,0.00
2014-5-12,19.2,18.1,17.2,13.8,12.8,11.8,82,79,76,30.06,29.97,1,1,7,0.01
2014-5-13,27.5,16.3,3.2,13.9,7.4,-2.0,84,69,43,30.49,30.25,5,1,16,0.04
2014-5-14,32.7,22.6,7.0,19.7,12.4,2.1,83,66,42,30.48,30.25,10,4,24,0.04
2014-5-15,37.9,30.7,23.5,27.3,22.5,18.3,86,72,53,30.20,29.97,13,7,33,0.11
2014-5-16,46.8,38.1,31.3,30.1,23.8,16.1,85,59,34,29.86,29.75,12,6,31,0.04
2014-5-17,51.6,40.2,27.0,27.5,22.4,15.2,87,53,24,29.74,29.64,9,3,23,0.01
2014-5-18,56.7,44.2,24.8,21.8,17.1,10.1,80,38,20,29.66,29.45,6,2,21,0.00
2014-5-19,55.7,44.6,29.1,22.0,12.3,6.4,71,30,15,29.53,29.36,7,3,26,0.00
2014-5-20,58.1,43.8,26.4,21.1,13.1,6.6,67,33,14,29.72,29.54,4,1,15,0.00
2014-5-21,56.2,38.4,25.3,35.6,25.5,16.0,93,63,23,29.83,29.72,5,1,17,0.03
2014-5-22,50.5,40.3,30.0,36.4,32.7,28.2,95,76,44,29.92,29.79,5,1,22,0.19
2014-5-23,53.3,40.9,31.6,35.8,31.6,24.4,95,73,36,29.90,29.72,3,0,14,0.01
2014-5-24,52.8,38.9,28.1,35.4,30.7,21.3,94,75,32,29.76,29.60,4,0,13,0.02
2014-5-25,39.2,34.0,27.3,35.3,30.2,24.5,93,86,64,29.90,29.63,3,0,15,0.37
2014-5-26,54.4,40.2,23.0,30.9,24.5,18.1,89,58,27,29.99,29.88,4,1,16,0.05
2014-5-27,60.2,46.0,30.4,32.0,27.6,20.8,88,54,25,29.91,29.84,10,2,23,0.00
2014-5-28,64.2,47.1,28.7,34.0,26.0,16.7,89,52,19,29.93,29.79,5,1,13,0.00
2014-5-29,63.1,45.6,29.8,38.9,32.0,26.9,94,65,28,29.80,29.66,8,1,18,0.17
2014-5-30,51.1,40.9,30.4,41.8,36.4,28.9,96,85,60,29.84,29.67,3,0,11,0.43
2014-5-31,57.3,41.1,29.3,34.1,29.4,25.2,94,68,30,29.87,29.70,9,1,27,0.03
2014-6-1,57.8,45.4,28.1,32.9,23.5,12.4,80,47,18,29.69,29.53,7,2,22,0.01
2014-6-2,63.2,45.3,24.7,31.2,20.4,6.8,83,46,14,29.82,29.67,5,1,17,0.00
2014-6-3,61.2,48.3,31.6,27.4,19.5,11.4,80,37,15,29.69,29.53,7,2,27,0.00
2014-6-4,64.5,47.3,25.0,21.8,14.7,5.3,74,35,10,29.65,29.53,7,1,20,0.00
2014-6-5,62.1,46.5,25.8,36.1,21.1,3.5,86,46,10,29.67,29.59,6,1,23,0.00
2014-6-6,60.1,47.1,31.3,41.2,28.8,17.1,93,56,20,29.62,29.48,9,2,23,0.00
2014-6-7,60.2,45.0,28.7,38.3,28.6,12.0,91,61,15,29.68,29.61,6,1,20,0.00
2014-6-8,51.7,37.5,28.8,38.0,30.4,24.6,94,77,45,29.74,29.45,10,3,26,0.12
2014-6-9,52.9,40.7,25.8,26.5,17.9,4.7,76,43,21,29.88,29.75,9,4,24,0.04
2014-6-10,59.0,46.6,27.8,29.1,23.8,17.4,82,44,24,29.74,29.57,8,3,23,0.00
2014-6-11,57.8,47.1,33.1,37.0,28.9,24.2,91,52,29,29.65,29.49,11,3,29,0.14
2014-6-12,60.4,44.1,29.3,40.8,29.2,21.4,95,62,23,29.77,29.59,7,2,23,0.00
2014-6-13,63.1,49.0,29.4,31.4,23.8,15.3,87,44,16,29.72,29.40,6,2,19,0.00
2014-6-14,56.5,44.2,31.9,30.4,17.6,9.1,86,38,17,29.47,29.22,9,3,35,0.02
2014-6-15,56.5,44.4,30.1,22.4,15.7,9.6,69,34,17,29.62,29.45,6,3,21,0.00
2014-6-16,58.6,48.9,30.4,21.9,14.2,8.3,65,26,17,29.51,29.42,9,4,29,0.00
2014-6-17,62.4,50.3,32.1,25.9,19.2,7.9,57,30,20,29.42,29.36,6,2,23,0.00
2014-6-18,57.5,43.7,29.7,35.4,24.7,19.1,86,51,23,29.60,29.36,7,2,27,0.06
2014-6-19,59.6,45.4,25.7,27.7,20.9,9.7,87,43,14,29.88,29.62,7,2,20,0.00
2014-6-20,66.4,48.7,25.4,28.6,18.8,5.5,69,37,14,29.87,29.70,5,2,15,0.00
2014-6-21,63.2,47.1,31.6,37.2,27.2,20.7,86,52,20,29.69,29.58,8,1,25,0.00
2014-6-22,58.7,44.8,29.8,37.4,29.7,22.4,85,60,27,29.75,29.65,6,1,21,0.08
2014-6-23,60.4,44.2,28.2,37.6,30.2,22.8,92,64,27,29.81,29.70,8,1,20,0.04
2014-6-24,63.9,47.3,29.1,39.7,28.1,20.8,92,55,20,29.82,29.72,7,2,20,0.01
2014-6-25,66.1,48.6,29.8,42.0,28.6,21.0,92,54,19,29.77,29.60,6,1,17,0.00
2014-6-26,68.4,51.7,29.3,30.7,22.5,10.4,78,38,16,29.66,29.39,6,1,19,0.00
2014-6-27,58.4,47.6,31.0,31.3,26.9,21.1,80,46,25,29.44,29.29,8,2,25,0.00
2014-6-28,58.6,46.7,35.6,33.5,28.0,22.7,88,52,25,29.73,29.44,11,4,29,0.05
2014-6-29,67.3,55.6,37.5,32.7,26.0,18.0,68,33,23,29.73,29.55,10,3,24,0.00
2014-6-30,67.3,56.7,41.2,37.2,27.3,19.9,78,35,17,29.57,29.49,10,3,27,0.00
2014-7-1,66.4,51.1,36.3,42.5,34.2,17.4,89,60,16,29.74,29.57,6,2,17,0.00
2014-7-2,67.1,50.8,37.0,45.2,37.1,21.2,93,66,18,29.75,29.66,4,1,15,0.00
2014-7-3,68.8,51.2,30.7,41.8,32.2,24.7,93,57,21,29.86,29.74,6,1,17,0.02
2014-7-4,67.1,49.4,33.5,46.6,37.3,31.2,93,68,28,29.88,29.77,9,2,19,0.06
2014-7-5,66.4,50.6,33.8,39.9,34.0,28.4,94,58,26,29.89,29.84,6,2,20,0.00
2014-7-6,67.8,52.4,34.4,39.2,32.9,26.3,83,52,25,29.90,29.80,4,1,13,0.00
2014-7-7,70.3,52.5,36.3,46.2,35.7,30.0,87,58,24,29.79,29.63,7,1,20,0.00
2014-7-8,66.8,50.1,33.7,49.7,40.2,29.3,96,72,26,29.81,29.70,7,1,18,0.06
2014-7-9,68.9,53.4,32.7,41.3,35.3,28.1,94,55,23,29.82,29.63,7,2,19,0.00
2014-7-10,64.3,52.6,39.1,51.9,40.7,31.9,91,65,36,29.67,29.57,5,1,15,0.18
2014-7-11,68.1,50.7,38.5,53.7,43.0,36.1,94,77,39,29.80,29.64,4,1,16,0.34
2014-7-12,69.3,51.5,39.3,48.8,43.1,37.4,96,77,35,29.90,29.74,5,1,17,0.46
2014-7-13,66.1,51.9,37.3,53.1,45.8,36.0,96,81,34,29.89,29.79,4,0,14,0.00
2014-7-14,68.8,52.2,36.2,49.5,41.7,28.0,96,72,22,29.88,29.77,5,1,14,0.01
2014-7-15,64.8,49.7,35.2,44.0,38.9,33.6,96,71,33,29.78,29.64,7,2,20,0.17
2014-7-16,62.9,50.6,38.2,44.4,38.9,31.2,96,68,31,29.70,29.57,8,3,22,0.20
2014-7-17,62.9,46.5,31.2,44.6,36.8,29.9,96,73,32,29.76,29.64,6,1,16,0.21
2014-7-18,64.0,49.4,32.5,43.0,36.4,30.3,96,65,29,29.76,29.70,7,2,19,0.01
2014-7-19,66.9,50.3,33.7,49.9,36.0,31.4,92,63,30,29.81,29.71,4,1,16,0.04
2014-7-20,68.6,49.0,34.3,45.2,36.3,28.6,94,69,27,29.88,29.74,5,1,21,0.25
2014-7-21,67.1,51.1,35.9,48.5,37.6,29.2,96,66,28,29.91,29.82,5,1,15,0.01
2014-7-22,72.8,53.9,33.8,44.1,32.6,19.8,89,53,14,30.00,29.91,4,1,19,0.00
2014-7-23,68.3,50.2,35.8,51.8,42.0,33.3,92,76,42,29.96,29.86,4,0,17,0.17
2014-7-24,66.9,54.5,40.8,46.1,41.3,38.1,94,63,39,29.91,29.68,10,3,24,0.02
2014-7-25,67.3,54.1,41.2,49.0,42.3,37.4,94,66,38,29.70,29.62,5,1,22,0.09
2014-7-26,68.4,52.5,38.6,48.8,41.9,36.2,93,70,38,29.87,29.70,4,1,17,0.04
2014-7-27,65.5,48.4,35.0,49.0,40.2,31.9,95,76,38,30.01,29.87,2,0,12,0.07
2014-7-28,61.6,47.5,36.2,47.4,42.6,34.9,96,85,50,30.02,29.92,3,0,10,0.42
2014-7-29,57.5,47.0,39.2,49.1,43.1,37.7,96,87,62,29.92,29.75,4,0,13,0.06
2014-7-30,52.5,45.0,39.9,46.2,42.3,38.0,95,90,78,29.93,29.76,3,0,9,0.85
2014-7-31,49.6,43.7,39.5,48.8,42.1,37.7,97,94,86,29.96,29.84,1,0,7,0.77
2014-8-1,48.5,43.3,35.0,45.4,40.7,33.4,96,91,76,29.98,29.90,2,0,9,0.08
2014-8-2,60.5,46.5,29.7,44.5,37.8,27.4,95,74,43,30.07,29.91,2,0,13,0.01
2014-8-3,65.0,48.1,32.2,45.2,38.6,30.7,96,73,31,29.93,29.78,3,0,12,0.01
2014-8-4,62.7,48.0,38.3,49.6,41.9,36.7,96,81,45,29.82,29.72,4,0,12,0.29
2014-8-5,60.9,48.5,38.5,45.5,40.4,35.6,96,76,43,29.80,29.71,11,2,26,0.02
2014-8-6,61.6,49.1,37.2,42.9,37.9,29.6,94,69,31,29.82,29.76,6,2,19,0.07
2014-8-7,60.5,48.8,35.9,43.4,36.1,32.1,87,63,37,29.77,29.68,4,1,16,0.00
2014-8-8,61.3,45.9,30.7,42.4,31.7,28.1,95,63,30,29.88,29.76,7,1,20,0.01
2014-8-9,61.6,51.0,34.9,44.1,34.7,30.8,85,55,34,29.97,29.85,7,3,23,0.00
2014-8-10,59.6,42.9,30.6,44.1,36.8,28.4,95,81,52,30.12,29.92,3,0,12,0.24
2014-8-11,61.2,52.0,36.0,46.2,40.7,34.2,94,67,44,30.08,30.01,3,0,11,0.04
2014-8-12,67.3,49.9,32.1,44.0,36.8,29.5,96,66,29,30.03,29.85,3,0,15,0.00
2014-8-13,61.2,50.0,37.3,49.4,43.0,35.2,95,79,47,29.89,29.73,5,0,14,0.21
2014-8-14,57.0,49.0,39.3,48.9,42.9,37.0,97,80,60,29.77,29.66,7,1,19,0.03
2014-8-15,44.2,38.2,34.7,38.7,35.7,33.2,95,91,80,29.79,29.73,1,0,15,0.00
2014-8-16,65.2,49.6,34.4,42.5,36.2,31.1,93,64,31,29.88,29.80,4,1,15,0.00
2014-8-17,67.1,48.6,32.7,44.0,34.3,29.9,91,63,27,29.93,29.81,5,1,15,0.01
2014-8-18,64.8,46.9,30.4,44.8,34.5,25.9,92,67,26,29.85,29.74,5,0,16,0.03
2014-8-19,62.6,47.8,33.2,42.4,36.9,30.9,92,69,35,29.77,29.58,6,1,18,0.01
2014-8-20,62.7,50.6,39.9,45.1,39.8,35.0,92,68,42,29.61,29.52,7,2,18,0.01
2014-8-21,59.3,47.8,33.2,44.9,36.1,30.3,90,66,36,29.79,29.61,9,2,24,0.02
2014-8-22,54.5,43.9,37.3,45.7,40.6,35.2,95,88,60,29.77,29.64,2,0,13,0.06
2014-8-24,57.2,45.9,35.6,35.2,28.9,18.5,88,53,35,29.76,29.70,11,3,30,0.00
2014-8-25,60.7,44.1,33.1,41.9,34.7,27.7,93,73,29,29.87,29.74,6,0,18,0.05
2014-8-29,59.2,45.7,31.0,38.6,34.0,28.4,91,66,36,29.85,29.74,6,2,20,0.00
2014-8-30,62.0,44.1,28.8,40.3,32.2,26.7,94,67,31,29.88,29.70,9,1,23,0.01
2014-8-31,55.9,48.1,39.5,40.6,32.3,28.0,84,55,38,29.65,29.49,7,2,21,0.03
2014-9-1,48.3,37.1,30.3,33.0,29.7,26.6,87,76,53,29.80,29.66,1,0,17,0.00
2014-9-2,63.4,47.2,27.0,37.4,28.6,22.9,89,53,28,29.83,29.72,9,2,26,0.00
2014-9-3,67.6,50.4,32.8,36.6,30.2,24.8,83,52,22,29.69,29.57,4,1,15,0.00
2014-9-4,61.5,46.5,33.4,39.2,31.4,23.2,94,60,24,29.77,29.55,6,1,19,0.17
2014-9-5,56.3,43.4,32.2,45.4,38.9,30.6,96,85,48,29.94,29.73,4,0,12,0.28
2014-9-6,62.0,45.6,31.3,42.8,36.9,29.6,96,76,31,29.96,29.84,5,0,15,0.11
2014-9-7,59.2,42.8,30.1,43.5,34.5,28.6,96,76,39,29.89,29.78,7,1,26,0.06
2014-9-8,55.9,45.1,33.5,44.5,38.5,31.7,95,79,51,29.83,29.70,4,0,15,0.07
2014-9-9,54.1,44.4,38.2,45.9,39.9,34.1,96,84,64,29.66,29.49,6,2,19,0.36
2014-9-10,52.3,40.5,29.8,33.6,30.6,24.8,91,70,36,29.88,29.60,7,2,19,0.03
2014-9-11,57.5,43.5,26.9,32.0,26.5,20.9,92,56,27,29.91,29.78,8,2,22,0.01
2014-9-12,53.3,39.3,26.7,32.9,23.0,9.5,95,61,18,29.95,29.80,10,2,30,0.00
2014-9-13,25.3,23.9,23.0,20.6,18.9,16.8,84,81,77,29.96,29.95,0,0,5,0.00
2014-9-14,62.7,43.2,25.4,32.4,26.4,21.6,88,58,23,29.95,29.85,6,2,21,0.00
2014-9-15,62.3,43.3,27.9,41.9,30.3,24.4,91,66,28,30.00,29.91,3,0,13,0.02
2014-9-16,63.4,44.4,27.9,35.6,30.0,25.6,92,63,28,29.99,29.86,5,1,16,0.01
2014-9-17,65.0,45.9,30.3,40.9,31.8,27.5,90,63,27,29.85,29.72,3,0,12,0.00
2014-9-18,64.8,46.7,29.5,40.4,29.1,23.2,89,58,21,29.79,29.66,3,1,11,0.01
2014-9-19,67.9,48.0,29.3,36.8,30.7,24.8,91,57,20,29.79,29.68,5,1,17,0.00
2014-9-20,66.0,45.7,30.3,49.2,37.7,28.4,95,77,36,29.95,29.77,3,0,13,0.21
2014-9-21,59.0,46.0,40.9,45.2,41.6,37.1,96,86,44,29.93,29.84,2,0,10,0.08
2014-9-22,57.5,46.7,40.6,45.1,38.8,34.3,96,76,45,29.83,29.69,6,2,21,0.20
2014-9-23,56.5,45.7,33.2,35.5,32.7,29.8,91,62,39,29.86,29.69,12,3,25,0.00
2014-9-24,51.0,32.6,28.5,38.2,29.7,26.2,93,90,53,29.99,29.89,1,0,3,0.01
2014-9-25,65.8,50.1,35.5,42.3,36.2,31.7,86,62,33,29.84,29.80,2,0,10,0.01
2014-9-26,66.6,48.3,30.7,40.6,32.7,28.7,95,61,27,29.80,29.66,5,1,15,0.00
2014-9-27,64.7,47.9,31.8,39.8,32.7,27.4,91,61,25,29.70,29.54,4,1,15,0.01
2014-9-28,51.4,40.7,30.0,42.1,35.6,28.0,96,83,60,29.71,29.56,4,1,14,0.03
2014-9-29,44.6,34.9,29.4,38.9,31.1,22.7,96,86,69,29.69,29.44,13,2,33,0.28
2014-9-30,40.6,33.1,29.0,27.9,23.7,20.6,84,69,55,29.68,29.58,12,5,32,0.02
2014-10-1,43.8,31.9,23.8,29.4,23.4,17.3,90,72,46,29.74,29.57,8,2,23,0.05
2014-10-2,40.3,29.9,21.1,18.6,14.2,0.7,82,54,22,30.03,29.78,11,6,27,0.02
2014-10-3,43.8,34.7,27.0,20.4,15.0,4.5,69,46,25,30.07,29.99,14,7,36,0.00
2014-10-4,51.4,39.4,27.9,22.3,19.3,16.4,72,46,25,30.00,29.79,11,4,33,0.00
2014-10-5,49.9,38.7,28.4,24.5,20.8,12.9,71,51,24,29.82,29.73,11,5,29,0.00
2014-10-6,54.2,41.7,32.9,26.2,21.8,16.0,67,47,26,29.79,29.66,14,6,39,0.00
2014-10-7,58.1,45.0,29.0,24.4,20.5,14.4,72,41,19,29.76,29.68,8,3,24,0.00
2014-10-8,56.9,40.2,27.0,27.5,22.6,15.0,79,54,21,29.79,29.71,2,0,11,0.00
2014-10-9,38.3,33.8,30.6,33.6,29.7,26.3,94,85,73,29.73,29.66,1,0,7,0.12
2014-10-10,36.5,32.7,29.5,32.0,30.2,27.8,94,90,80,29.94,29.90,0,0,1,0.37
2014-10-11,43.1,34.2,23.9,34.1,26.2,17.4,94,74,44,29.97,29.68,7,1,19,0.49
2014-10-12,35.5,28.1,22.1,27.2,21.5,14.7,91,76,57,29.92,29.39,12,4,29,0.01
2014-10-13,31.0,26.1,20.2,18.1,15.2,12.4,82,63,51,30.20,29.95,10,5,30,0.00
2014-10-14,54.5,39.8,24.1,21.3,11.8,3.3,70,36,14,30.18,29.97,6,2,20,0.02
2014-10-15,58.3,44.2,21.0,16.6,10.5,2.1,69,28,11,29.97,29.68,7,2,23,0.00
2014-10-16,55.1,44.0,27.0,23.9,17.4,12.0,68,36,19,29.71,29.58,11,4,31,0.00
2014-10-17,54.5,40.8,26.4,25.6,18.2,11.0,83,45,22,29.84,29.71,3,1,16,0.00
2014-10-18,53.3,37.1,24.2,27.9,22.1,18.3,83,59,27,29.92,29.82,4,1,14,0.00
2014-10-19,51.1,38.6,28.5,33.0,27.9,24.1,92,68,38,29.93,29.86,1,0,9,0.01
2014-10-20,52.6,35.4,24.2,33.7,27.3,21.4,92,75,33,29.95,29.87,3,0,11,0.02
2014-10-21,50.2,36.9,24.4,32.9,26.8,21.7,94,70,38,29.89,29.73,5,0,16,0.01
2014-10-22,47.3,33.7,25.8,31.1,26.1,21.0,91,75,45,29.96,29.73,6,1,22,0.08
2014-10-23,50.1,36.4,25.0,28.6,22.4,18.4,85,59,33,30.01,29.94,5,1,18,0.00
2014-10-24,56.6,40.5,25.3,20.5,15.3,10.1,76,41,17,30.05,29.97,10,3,22,0.00
2014-10-25,60.1,38.9,20.8,23.0,13.0,2.5,78,43,10,30.10,29.83,3,0,19,0.00
2014-10-26,51.9,43.3,37.0,25.3,18.9,9.8,58,39,23,29.65,29.40,11,4,32,0.00
2014-10-27,36.2,29.3,20.3,26.6,18.4,-1.3,88,64,32,29.80,29.36,8,3,22,0.02
2014-11-4,41.1,30.8,18.0,10.8,-1.4,-10.1,68,26,15,30.35,30.14,8,2,25,0.04
2014-11-11,29.1,25.0,19.1,17.2,9.2,2.7,70,51,38,29.77,29.71,5,1,22,0.06
2014-11-12,13.3,12.7,11.9,7.1,6.4,5.2,77,75,73,30.09,30.05,6,4,23,0.00
2014-11-13,22.2,17.9,10.2,18.8,11.4,-2.2,87,76,53,30.14,29.88,8,4,29,0.00
2014-11-14,26.9,21.8,18.3,17.4,15.0,12.4,82,75,60,29.88,29.65,10,4,29,0.00
2014-11-16,10.0,6.1,3.0,-2.2,-6.6,-12.3,70,56,35,30.29,30.05,13,7,36,0.00
2014-11-17,14.3,5.7,-0.8,-1.0,-6.7,-12.1,67,56,39,30.39,30.27,11,7,29,0.01
2014-11-18,22.1,14.2,6.5,3.7,-2.1,-6.3,61,48,37,30.35,30.20,14,8,34,0.00
2014-11-19,28.1,22.4,16.2,-0.7,-4.5,-9.7,45,30,23,30.19,29.93,12,6,32,0.00
2014-11-22,33.2,26.7,22.4,20.2,12.7,3.9,87,58,29,29.92,29.51,18,8,40,0.00
2014-11-23,22.2,11.6,4.3,16.4,4.0,-3.3,83,71,54,29.93,29.42,13,6,29,0.00
2014-11-24,10.5,6.4,3.4,2.4,-1.3,-5.0,75,70,60,30.42,29.95,7,4,26,0.00
2014-11-25,20.0,12.5,3.7,17.3,7.0,-5.2,89,78,58,30.41,30.28,15,9,35,0.00
2014-11-26,27.3,23.4,20.0,23.9,19.1,14.2,90,83,69,30.29,30.17,14,9,34,0.03
2014-11-27,37.3,31.2,22.9,16.3,11.4,4.1,67,44,33,30.30,30.03,10,7,29,0.02
2014-11-28,41.1,36.1,32.2,8.6,4.5,1.6,34,26,22,29.99,29.76,13,8,24,0.01
2014-11-29,37.3,30.4,25.0,3.9,-0.4,-3.1,35,26,20,29.62,29.51,8,4,21,0.00
2014-11-30,35.0,26.3,14.0,7.6,3.9,0.9,63,39,26,29.90,29.59,8,3,19,0.00
2014-12-1,28.4,24.1,18.6,15.8,12.0,6.3,79,60,48,30.09,29.92,11,5,19,0.00
2014-12-2,34.6,27.7,19.5,5.6,-0.1,-7.1,51,31,19,30.03,29.85,11,5,23,0.00
2014-12-7,30.6,21.8,6.1,16.1,10.1,-2.0,78,61,44,30.34,30.17,10,4,18,0.00
2014-12-8,41.2,24.7,6.5,3.2,-4.7,-14.4,66,32,9,30.38,30.27,6,2,12,0.00
2014-12-9,40.3,23.3,6.1,4.1,-5.1,-14.0,56,33,10,30.35,30.18,6,2,12,0.00
2014-12-10,42.9,26.9,13.8,16.3,7.4,-8.9,72,46,21,30.17,30.01,3,0,6,0.00
2014-12-11,43.6,26.3,10.9,11.2,0.4,-10.5,69,36,14,30.10,30.01,5,1,13,0.00
2014-12-14,13.3,13.0,12.9,6.8,6.2,5.8,76,74,72,29.77,29.73,10,8,18,0.00
2014-12-15,22.4,14.8,9.9,6.0,-3.1,-19.7,76,50,15,30.25,29.80,13,7,27,0.00
2014-12-16,36.0,22.7,6.7,19.4,10.8,-4.7,83,62,30,30.20,29.88,10,2,25,0.05
2014-12-17,24.8,14.3,4.5,15.3,7.9,-0.3,83,76,59,30.05,29.89,2,0,3,0.00
2014-12-18,22.5,14.5,7.6,12.8,6.5,2.8,84,71,51,30.14,30.00,9,2,16,0.00
2014-12-19,20.3,15.1,8.6,7.3,3.1,-1.0,71,59,42,30.17,30.08,12,6,21,0.00
2014-12-20,28.4,20.5,17.3,14.3,10.8,7.2,83,66,52,30.15,29.84,11,3,18,0.00
2014-12-21,22.5,20.0,16.4,19.7,15.6,9.2,89,83,70,29.85,29.56,14,8,26,0.00
2014-12-22,19.2,12.5,4.7,16.2,8.1,-1.5,88,82,74,29.87,29.56,13,6,30,0.00
2014-12-23,10.0,4.3,1.7,-0.1,-4.2,-11.1,77,68,46,30.35,29.90,14,8,28,0.00
2014-12-24,29.7,22.6,8.4,15.1,6.2,-12.4,61,49,35,30.27,29.49,15,10,30,0.01
2014-12-25,26.9,17.4,2.6,14.4,6.9,-2.5,84,64,42,29.53,29.25,8,2,25,0.00
2014-12-26,5.4,-1.3,-12.5,-1.5,-7.6,-19.8,81,74,68,30.26,29.54,1,0,7,0.00
2014-12-27,10.5,3.0,-13.8,-6.1,-11.8,-21.1,78,51,25,30.46,30.29,14,6,27,0.00
2014-12-28,12.8,9.5,6.7,3.0,-1.7,-23.6,77,63,18,30.26,29.95,13,4,29,0.00
2014-12-29,7.0,0.6,-8.9,0.7,-5.5,-16.0,79,75,70,30.33,29.94,2,0,5,0.00
2014-12-30,-1.0,-8.7,-15.8,-9.9,-16.6,-23.1,71,68,64,30.72,30.47,2,0,5,0.00
2014-12-31,19.4,1.1,-14.6,8.9,-6.2,-21.8,80,71,60,30.77,30.39,2,0,6,0.09
2015-1-1,17.0,3.0,-8.6,11.6,-2.5,-15.3,85,77,71,30.37,30.13,1,0,2,0.00
2015-1-2,30.4,8.5,-9.6,13.4,-1.0,-16.4,85,66,43,30.33,30.06,5,1,11,0.12